Time;durP1;ratioP1;P1;durP2;ratioP2;P2;SDS_P1;SDS_P2;PMS_P1;PMS_P2;Temp;Humidity;BMP_temperature;BMP_pressure;BME280_temperature;BME280_humidity;BME280_pressure;Samples;Min_cycle;Max_cycle;Signal;HPM_P1;HPM_P2
2023/12/08 00:00:46;;;;;;;8.40;4.10;;;2.50;99.90;;;;;;4987359;28;20022;-76
2023/12/08 00:03:12;;;;;;;8.57;4.80;;;2.60;99.90;;;;;;4989317;28;20033;-75
2023/12/08 00:05:38;;;;;;;7.70;4.68;;;2.50;99.90;;;;;;4988935;28;20108;-75
2023/12/08 00:08:03;;;;;;;9.65;5.22;;;2.50;99.90;;;;;;4992396;28;20092;-76
2023/12/08 00:10:29;;;;;;;8.93;4.60;;;2.50;99.90;;;;;;4973972;28;20112;-75
2023/12/08 00:12:55;;;;;;;7.82;4.45;;;2.50;99.90;;;;;;4985620;28;20045;-75
2023/12/08 00:15:20;;;;;;;7.03;4.35;;;2.50;99.90;;;;;;4992464;28;20038;-75
2023/12/08 00:17:46;;;;;;;9.95;4.45;;;2.50;99.90;;;;;;4990048;28;20023;-74
2023/12/08 00:20:12;;;;;;;8.02;4.50;;;2.50;99.90;;;;;;4972787;28;20027;-75
2023/12/08 00:22:37;;;;;;;8.30;4.82;;;2.50;99.90;;;;;;4985615;28;20415;-75
2023/12/08 00:25:03;;;;;;;8.57;4.82;;;2.50;99.90;;;;;;4987427;28;20090;-75
2023/12/08 00:27:28;;;;;;;14.05;5.60;;;2.50;99.90;;;;;;4987969;28;20480;-75
2023/12/08 00:29:54;;;;;;;10.57;5.65;;;2.50;99.90;;;;;;4990884;28;20591;-75
2023/12/08 00:32:20;;;;;;;8.80;4.93;;;2.50;99.90;;;;;;4987321;28;20044;-75
2023/12/08 00:34:46;;;;;;;10.07;5.28;;;2.50;99.90;;;;;;4976567;28;20034;-75
2023/12/08 00:37:12;;;;;;;8.68;4.82;;;2.50;99.90;;;;;;4990504;28;20022;-75
2023/12/08 00:39:37;;;;;;;7.82;5.00;;;2.60;99.90;;;;;;4990369;28;20054;-75
2023/12/08 00:42:03;;;;;;;9.00;5.25;;;2.60;99.90;;;;;;4990370;28;20058;-75
2023/12/08 00:44:29;;;;;;;11.88;4.68;;;2.60;99.90;;;;;;4990118;28;20038;-75
2023/12/08 00:46:55;;;;;;;9.63;5.00;;;2.60;99.90;;;;;;4989839;28;20035;-75
2023/12/08 00:49:20;;;;;;;8.35;5.03;;;2.50;99.90;;;;;;4987158;28;20034;-75
2023/12/08 00:51:46;;;;;;;9.43;5.45;;;2.50;99.90;;;;;;4989477;28;20037;-75
2023/12/08 00:54:13;;;;;;;8.00;4.35;;;2.50;99.90;;;;;;4991293;28;20148;-76
2023/12/08 00:56:39;;;;;;;8.38;4.78;;;2.60;99.90;;;;;;4993419;28;20034;-75
2023/12/08 00:59:05;;;;;;;8.35;4.68;;;2.50;99.90;;;;;;4989905;28;20026;-75
2023/12/08 01:01:30;;;;;;;10.43;5.55;;;2.50;99.90;;;;;;4972737;28;20073;-75
2023/12/08 01:03:56;;;;;;;13.30;5.15;;;2.50;99.90;;;;;;4988611;28;20037;-75
2023/12/08 01:06:22;;;;;;;8.73;4.75;;;2.50;99.90;;;;;;4990004;28;20498;-75
2023/12/08 01:08:48;;;;;;;10.40;5.05;;;2.60;99.90;;;;;;4989666;28;20021;-76
2023/12/08 01:11:14;;;;;;;6.63;4.35;;;2.60;99.90;;;;;;4989857;28;20026;-75
2023/12/08 01:13:39;;;;;;;12.45;5.55;;;2.60;99.90;;;;;;4991034;28;20026;-75
2023/12/08 01:16:06;;;;;;;7.53;4.53;;;2.60;99.90;;;;;;4996646;28;20049;-76
2023/12/08 01:18:32;;;;;;;10.10;4.70;;;2.60;99.90;;;;;;4969607;28;20109;-74
2023/12/08 01:20:58;;;;;;;8.57;4.25;;;2.70;99.90;;;;;;4987912;28;20038;-76
2023/12/08 01:23:24;;;;;;;6.60;3.97;;;2.70;99.90;;;;;;4991603;28;20038;-76
2023/12/08 01:25:49;;;;;;;7.22;3.83;;;2.80;99.90;;;;;;4992732;28;20131;-75
2023/12/08 01:28:15;;;;;;;7.15;3.85;;;2.80;99.90;;;;;;4990534;28;20392;-75
2023/12/08 01:30:41;;;;;;;6.55;3.25;;;2.90;99.90;;;;;;4992597;28;20058;-76
2023/12/08 01:33:06;;;;;;;5.88;3.72;;;2.90;99.90;;;;;;4994888;28;20049;-75
2023/12/08 01:35:32;;;;;;;8.45;4.80;;;2.90;99.90;;;;;;4993877;28;20360;-75
2023/12/08 01:37:57;;;;;;;10.55;5.22;;;2.90;99.90;;;;;;4990145;28;20543;-75
2023/12/08 01:40:23;;;;;;;7.60;4.70;;;2.90;99.90;;;;;;4990783;28;20038;-75
2023/12/08 01:42:48;;;;;;;7.68;4.47;;;2.90;99.90;;;;;;4989023;28;20041;-76
2023/12/08 01:45:14;;;;;;;6.97;4.70;;;2.90;99.90;;;;;;4990085;28;20034;-75
2023/12/08 01:47:41;;;;;;;10.10;5.10;;;3.00;99.90;;;;;;4995041;28;20030;-75
2023/12/08 01:50:08;;;;;;;8.73;4.88;;;3.00;99.90;;;;;;4991398;28;20109;-75
2023/12/08 01:52:35;;;;;;;10.20;6.05;;;2.90;99.90;;;;;;4989964;28;20034;-74
2023/12/08 01:55:01;;;;;;;11.02;6.45;;;2.90;99.90;;;;;;4987682;28;20042;-75
2023/12/08 01:57:27;;;;;;;13.75;7.82;;;2.90;99.90;;;;;;4991471;28;20038;-74
2023/12/08 01:59:53;;;;;;;15.75;7.88;;;2.80;99.90;;;;;;4990196;28;20085;-74
2023/12/08 02:02:20;;;;;;;14.32;8.02;;;2.80;99.90;;;;;;4995023;28;20027;-74
2023/12/08 02:04:48;;;;;;;11.18;6.85;;;2.70;99.90;;;;;;4988582;28;20035;-75
2023/12/08 02:07:14;;;;;;;12.48;6.55;;;2.70;99.90;;;;;;4995939;28;20510;-74
2023/12/08 02:09:40;;;;;;;11.20;6.50;;;2.70;99.90;;;;;;4991150;28;20125;-75
2023/12/08 02:12:07;;;;;;;14.00;7.00;;;2.70;99.90;;;;;;4986229;28;20026;-74
2023/12/08 02:14:33;;;;;;;13.20;6.70;;;2.70;99.90;;;;;;4991470;28;20049;-74
2023/12/08 02:17:09;;;;;;;11.68;6.13;;;2.60;99.90;;;;;;4994016;28;20030;-75
2023/12/08 02:19:35;;;;;;;13.93;6.63;;;2.70;99.90;;;;;;4993600;28;20570;-76
2023/12/08 02:22:00;;;;;;;14.15;6.63;;;2.70;99.90;;;;;;4994301;28;20050;-75
2023/12/08 02:24:26;;;;;;;11.77;5.93;;;2.70;99.90;;;;;;4993228;28;20031;-75
2023/12/08 02:26:52;;;;;;;9.55;5.53;;;2.70;99.90;;;;;;4990906;28;20030;-76
2023/12/08 02:29:17;;;;;;;9.35;5.22;;;2.70;99.90;;;;;;4988764;28;20026;-76
2023/12/08 02:31:55;;;;;;;8.15;4.78;;;2.80;99.90;;;;;;4989867;28;20034;-75
2023/12/08 02:34:25;;;;;;;12.10;6.40;;;2.70;99.90;;;;;;4987732;28;20034;-76
2023/12/08 02:36:54;;;;;;;11.38;5.60;;;2.80;99.90;;;;;;4987518;28;20018;-74
2023/12/08 02:39:21;;;;;;;10.45;5.35;;;2.90;99.90;;;;;;4990209;28;20113;-75
2023/12/08 02:41:46;;;;;;;9.52;5.70;;;2.90;99.90;;;;;;4989716;28;20761;-76
2023/12/08 02:44:12;;;;;;;12.57;7.03;;;2.90;99.90;;;;;;4990104;28;20037;-75
2023/12/08 02:46:38;;;;;;;10.60;5.15;;;3.00;99.90;;;;;;4988844;28;20034;-75
2023/12/08 02:49:04;;;;;;;9.60;5.68;;;3.00;99.90;;;;;;4992492;28;20122;-75
2023/12/08 02:51:29;;;;;;;12.02;6.47;;;2.90;99.90;;;;;;4994329;28;20492;-75
2023/12/08 02:53:55;;;;;;;10.32;5.90;;;3.00;99.90;;;;;;4976781;28;20030;-75
2023/12/08 02:56:21;;;;;;;10.27;5.53;;;3.00;99.90;;;;;;4977003;28;20034;-75
2023/12/08 02:58:46;;;;;;;10.85;6.18;;;3.00;99.90;;;;;;4991852;28;20030;-75
2023/12/08 03:01:12;;;;;;;9.80;5.70;;;2.90;99.90;;;;;;4994509;28;20042;-74
2023/12/08 03:03:37;;;;;;;11.35;6.00;;;2.90;99.90;;;;;;4990456;28;20535;-75
2023/12/08 03:06:03;;;;;;;11.43;6.20;;;3.00;99.90;;;;;;4992988;28;20112;-75
2023/12/08 03:08:29;;;;;;;12.40;6.40;;;2.90;99.90;;;;;;4994618;28;20157;-76
2023/12/08 03:10:54;;;;;;;12.25;7.07;;;2.90;99.90;;;;;;4991619;28;20038;-76
2023/12/08 03:13:20;;;;;;;13.13;6.47;;;3.00;99.90;;;;;;4991806;28;20041;-75
2023/12/08 03:15:45;;;;;;;11.90;6.55;;;2.90;99.90;;;;;;4990153;28;20363;-74
2023/12/08 03:18:11;;;;;;;8.85;5.68;;;2.90;99.90;;;;;;4997722;28;20105;-74
2023/12/08 03:20:36;;;;;;;12.13;6.82;;;2.90;99.90;;;;;;4993145;28;20456;-75
2023/12/08 03:23:02;;;;;;;12.57;6.68;;;2.80;99.90;;;;;;4990952;28;20444;-74
2023/12/08 03:25:28;;;;;;;9.65;6.55;;;2.80;99.90;;;;;;4992834;28;20030;-75
2023/12/08 03:27:53;;;;;;;10.32;6.78;;;2.80;99.90;;;;;;4995053;28;20035;-74
2023/12/08 03:30:19;;;;;;;11.55;6.68;;;2.70;99.90;;;;;;4995348;28;20034;-74
2023/12/08 03:32:45;;;;;;;10.18;6.10;;;2.70;99.90;;;;;;4991907;28;20041;-74
2023/12/08 03:35:10;;;;;;;12.95;7.53;;;2.70;99.90;;;;;;4994596;28;20030;-75
2023/12/08 03:37:36;;;;;;;10.50;6.57;;;2.70;99.90;;;;;;4993165;28;20034;-75
2023/12/08 03:40:02;;;;;;;12.68;7.10;;;2.70;99.90;;;;;;4990991;28;20034;-75
2023/12/08 03:42:27;;;;;;;12.23;6.18;;;2.70;99.90;;;;;;4973243;28;20022;-75
2023/12/08 03:44:53;;;;;;;10.57;6.63;;;2.70;99.90;;;;;;4991475;28;20163;-75
2023/12/08 03:47:18;;;;;;;11.90;6.13;;;2.70;99.90;;;;;;4991304;28;20230;-71
2023/12/08 03:49:44;;;;;;;11.50;6.05;;;2.80;99.90;;;;;;4989197;28;20057;-71
2023/12/08 03:52:10;;;;;;;9.27;5.43;;;2.80;99.90;;;;;;4989168;28;20031;-71
2023/12/08 03:54:35;;;;;;;10.55;6.07;;;2.80;99.90;;;;;;4994805;28;20034;-72
2023/12/08 03:57:01;;;;;;;9.68;6.07;;;2.80;99.90;;;;;;4995443;28;20481;-72
2023/12/08 03:59:26;;;;;;;13.32;5.63;;;2.90;99.90;;;;;;4981234;28;20022;-72
2023/12/08 04:01:53;;;;;;;9.82;5.65;;;2.90;99.90;;;;;;4992131;28;20031;-72
2023/12/08 04:04:18;;;;;;;11.00;6.30;;;2.90;99.90;;;;;;4993797;28;20038;-72
2023/12/08 04:06:44;;;;;;;9.55;5.53;;;3.00;99.90;;;;;;4993910;28;20084;-72
2023/12/08 04:09:09;;;;;;;9.43;5.43;;;2.90;99.90;;;;;;4994264;28;20564;-71
2023/12/08 04:11:35;;;;;;;8.45;4.97;;;2.90;99.90;;;;;;4992798;28;20391;-71
2023/12/08 04:14:00;;;;;;;8.38;5.45;;;2.90;99.90;;;;;;4992431;28;20054;-72
2023/12/08 04:16:26;;;;;;;11.73;5.85;;;3.00;99.90;;;;;;4994929;28;20034;-71
2023/12/08 04:18:51;;;;;;;9.95;5.75;;;2.90;99.90;;;;;;4990803;28;20026;-71
2023/12/08 04:21:18;;;;;;;8.27;5.28;;;2.90;99.90;;;;;;4994039;28;20034;-71
2023/12/08 04:23:44;;;;;;;10.07;5.55;;;2.90;99.90;;;;;;4992111;28;20498;-72
2023/12/08 04:26:09;;;;;;;11.85;5.93;;;2.90;99.90;;;;;;4990918;28;20030;-71
2023/12/08 04:28:35;;;;;;;9.10;5.70;;;2.90;99.90;;;;;;4993436;28;20416;-71
2023/12/08 04:31:01;;;;;;;10.07;5.80;;;2.90;99.90;;;;;;4994384;28;20074;-71
2023/12/08 04:33:26;;;;;;;9.75;5.20;;;2.80;99.90;;;;;;4989107;28;20032;-70
2023/12/08 04:35:52;;;;;;;8.73;5.18;;;2.90;99.90;;;;;;4992219;28;20026;-71
2023/12/08 04:38:17;;;;;;;9.57;5.60;;;2.90;99.90;;;;;;4991783;28;20630;-69
2023/12/08 04:40:43;;;;;;;11.80;6.05;;;2.90;99.90;;;;;;4990976;28;20030;-71
2023/12/08 04:43:08;;;;;;;10.85;5.93;;;2.90;99.90;;;;;;4993721;28;20181;-70
2023/12/08 04:45:34;;;;;;;11.05;6.30;;;2.90;99.90;;;;;;4991195;28;20027;-71
2023/12/08 04:47:59;;;;;;;12.90;6.18;;;2.90;99.90;;;;;;4992365;28;20056;-70
2023/12/08 04:50:26;;;;;;;11.82;6.53;;;2.90;99.90;;;;;;4988858;28;20105;-70
2023/12/08 04:52:51;;;;;;;12.30;6.03;;;2.90;99.90;;;;;;4994784;28;20026;-70
2023/12/08 04:55:17;;;;;;;12.25;6.55;;;2.90;99.90;;;;;;4989202;28;20037;-70
2023/12/08 04:57:42;;;;;;;15.13;6.63;;;2.90;99.90;;;;;;4985693;28;20034;-70
2023/12/08 05:00:08;;;;;;;14.20;6.05;;;2.90;99.90;;;;;;4988626;28;20107;-71
2023/12/08 05:02:34;;;;;;;11.48;6.25;;;2.90;99.90;;;;;;4988987;28;20038;-72
2023/12/08 05:05:00;;;;;;;11.88;6.00;;;2.90;99.90;;;;;;4985333;28;20069;-71
2023/12/08 05:07:26;;;;;;;10.00;5.28;;;3.00;99.90;;;;;;4975161;28;20038;-72
2023/12/08 05:09:51;;;;;;;9.75;5.35;;;2.90;99.90;;;;;;4990046;28;20023;-71
2023/12/08 05:12:17;;;;;;;13.48;6.35;;;3.00;99.90;;;;;;4991282;28;20035;-71
2023/12/08 05:14:42;;;;;;;12.15;5.85;;;3.00;99.90;;;;;;4986938;28;20870;-71
2023/12/08 05:17:08;;;;;;;8.70;5.22;;;3.10;99.90;;;;;;4972780;28;20111;-71
2023/12/08 05:19:34;;;;;;;8.07;5.20;;;3.10;99.90;;;;;;4986864;28;20033;-72
2023/12/08 05:22:01;;;;;;;9.70;5.00;;;3.10;99.90;;;;;;4986811;28;20040;-71
2023/12/08 05:24:26;;;;;;;10.15;4.60;;;3.20;99.90;;;;;;4992864;28;20388;-72
2023/12/08 05:26:52;;;;;;;8.40;4.75;;;3.20;99.90;;;;;;4991073;28;20022;-72
2023/12/08 05:29:17;;;;;;;11.60;5.50;;;3.30;99.90;;;;;;4992288;28;20059;-71
2023/12/08 05:31:43;;;;;;;7.18;4.72;;;3.30;99.90;;;;;;4989054;28;20062;-73
2023/12/08 05:34:08;;;;;;;7.32;4.47;;;3.40;99.90;;;;;;4975098;28;20037;-72
2023/12/08 05:36:34;;;;;;;8.80;5.25;;;3.50;99.90;;;;;;4994803;28;20061;-72
2023/12/08 05:38:59;;;;;;;12.20;6.05;;;3.50;99.90;;;;;;4987801;28;20037;-70
2023/12/08 05:41:25;;;;;;;9.45;5.10;;;3.60;99.90;;;;;;4987153;28;20029;-71
2023/12/08 05:43:51;;;;;;;10.07;5.35;;;3.60;99.90;;;;;;4985896;28;20465;-71
2023/12/08 05:46:16;;;;;;;11.02;5.45;;;3.60;99.90;;;;;;4990319;28;20030;-71
2023/12/08 05:48:42;;;;;;;9.23;5.10;;;3.70;99.90;;;;;;4991028;28;20038;-71
2023/12/08 05:51:07;;;;;;;10.07;5.35;;;3.70;99.90;;;;;;4992061;28;20380;-71
2023/12/08 05:53:33;;;;;;;10.27;5.25;;;3.70;99.90;;;;;;4993190;28;20511;-71
2023/12/08 05:55:58;;;;;;;8.80;4.82;;;3.70;99.90;;;;;;4968365;28;20049;-72
2023/12/08 05:58:24;;;;;;;9.88;5.15;;;3.70;99.90;;;;;;4970757;28;20032;-71
2023/12/08 06:00:50;;;;;;;10.68;5.20;;;3.70;99.90;;;;;;4989195;28;20344;-70
2023/12/08 06:03:16;;;;;;;8.30;4.65;;;3.80;99.90;;;;;;4968141;28;20026;-71
2023/12/08 06:05:41;;;;;;;5.93;3.38;;;3.80;99.90;;;;;;4986949;28;20041;-71
2023/12/08 06:08:07;;;;;;;4.82;2.85;;;3.90;99.90;;;;;;4991488;28;20094;-71
2023/12/08 06:10:33;;;;;;;5.80;3.08;;;3.90;99.90;;;;;;4991844;28;20477;-72
2023/12/08 06:12:58;;;;;;;5.50;2.70;;;3.90;99.90;;;;;;4988565;28;20047;-72
2023/12/08 06:15:24;;;;;;;5.93;3.47;;;4.10;99.90;;;;;;4989963;28;20109;-72
2023/12/08 06:17:50;;;;;;;5.68;2.80;;;4.10;99.90;;;;;;4985113;28;20037;-72
2023/12/08 06:20:16;;;;;;;8.75;4.70;;;4.20;99.90;;;;;;4982694;28;20034;-73
2023/12/08 06:22:43;;;;;;;12.50;7.38;;;4.10;99.90;;;;;;4984786;28;20018;-73
2023/12/08 06:25:08;;;;;;;11.98;8.40;;;4.10;99.90;;;;;;4987821;28;20035;-72
2023/12/08 06:27:35;;;;;;;15.30;9.02;;;4.00;99.90;;;;;;4990559;28;20042;-73
2023/12/08 06:30:01;;;;;;;16.35;9.23;;;3.90;99.90;;;;;;4989837;28;20350;-72
2023/12/08 06:32:30;;;;;;;15.88;8.88;;;3.90;99.90;;;;;;4990794;28;20027;-73
2023/12/08 06:34:55;;;;;;;16.05;8.75;;;3.80;99.90;;;;;;4991862;28;20062;-73
2023/12/08 06:37:21;;;;;;;15.07;8.52;;;3.80;99.90;;;;;;4989383;28;20084;-73
2023/12/08 06:39:47;;;;;;;15.55;8.95;;;3.70;99.90;;;;;;4987272;28;20022;-73
2023/12/08 06:42:12;;;;;;;15.65;9.27;;;3.60;99.90;;;;;;4992266;28;20026;-73
2023/12/08 06:44:38;;;;;;;17.02;8.90;;;3.60;99.90;;;;;;4986804;28;20031;-72
2023/12/08 06:47:04;;;;;;;13.77;8.30;;;3.60;99.90;;;;;;4993333;28;20408;-73
2023/12/08 06:49:30;;;;;;;14.57;7.78;;;3.60;99.90;;;;;;4991356;28;20495;-73
2023/12/08 06:51:56;;;;;;;13.40;8.48;;;3.50;99.90;;;;;;4987052;28;20054;-73
2023/12/08 06:54:21;;;;;;;14.60;9.15;;;3.50;99.90;;;;;;4990339;28;20041;-73
2023/12/08 06:56:47;;;;;;;16.23;8.57;;;3.50;99.90;;;;;;4972510;28;20121;-74
2023/12/08 06:59:12;;;;;;;16.27;8.30;;;3.50;99.90;;;;;;4991868;28;20448;-72
2023/12/08 07:01:38;;;;;;;18.58;8.75;;;3.40;99.90;;;;;;4987489;28;20054;-72
2023/12/08 07:04:04;;;;;;;16.13;8.57;;;3.40;99.90;;;;;;4986693;28;20022;-72
2023/12/08 07:06:30;;;;;;;21.65;10.02;;;3.40;99.90;;;;;;4990943;28;20037;-72
2023/12/08 07:08:56;;;;;;;19.65;8.57;;;3.40;99.90;;;;;;4989804;28;20431;-72
2023/12/08 07:11:22;;;;;;;18.80;8.70;;;3.50;99.90;;;;;;4989401;28;20110;-72
2023/12/08 07:13:48;;;;;;;20.15;9.13;;;3.40;99.90;;;;;;4988622;28;20049;-72
2023/12/08 07:16:14;;;;;;;15.60;6.45;;;3.50;99.90;;;;;;4987156;28;20026;-71
2023/12/08 07:18:40;;;;;;;17.92;5.53;;;3.50;99.90;;;;;;4985715;28;20410;-71
2023/12/08 07:21:06;;;;;;;11.05;4.88;;;3.50;99.90;;;;;;4990379;28;20110;-72
2023/12/08 07:23:31;;;;;;;17.95;7.85;;;3.60;99.90;;;;;;4990917;28;20031;-71
2023/12/08 07:25:57;;;;;;;14.82;7.07;;;3.60;99.90;;;;;;4990475;28;20547;-72
2023/12/08 07:28:22;;;;;;;14.80;6.68;;;3.70;99.90;;;;;;4990157;28;20109;-71
2023/12/08 07:30:48;;;;;;;14.55;5.30;;;3.70;99.90;;;;;;4988471;28;20037;-72
2023/12/08 07:33:13;;;;;;;14.82;6.15;;;3.80;99.90;;;;;;4985045;28;20483;-72
2023/12/08 07:35:39;;;;;;;11.02;5.90;;;3.90;99.90;;;;;;4992543;28;20018;-72
2023/12/08 07:38:05;;;;;;;9.52;3.28;;;3.90;99.90;;;;;;4978149;28;20034;-73
2023/12/08 07:40:30;;;;;;;7.68;2.75;;;4.00;99.90;;;;;;4993596;28;20030;-73
2023/12/08 07:42:56;;;;;;;6.10;2.63;;;4.00;99.90;;;;;;4975167;28;20113;-73
2023/12/08 07:45:22;;;;;;;7.10;3.10;;;4.10;99.90;;;;;;4989136;28;20049;-72
2023/12/08 07:47:47;;;;;;;5.93;2.60;;;4.20;99.90;;;;;;4989850;28;20459;-72
2023/12/08 07:50:13;;;;;;;7.55;3.03;;;4.30;99.90;;;;;;4990130;28;20030;-72
2023/12/08 07:52:41;;;;;;;5.55;2.72;;;4.30;99.90;;;;;;4997075;28;20018;-72
2023/12/08 07:55:08;;;;;;;6.05;2.88;;;4.40;99.90;;;;;;4992535;28;20049;-74
2023/12/08 07:57:34;;;;;;;10.43;3.92;;;4.40;99.90;;;;;;4994593;28;20773;-72
2023/12/08 07:59:59;;;;;;;8.38;3.60;;;4.50;99.90;;;;;;4995976;28;20027;-73
2023/12/08 08:02:25;;;;;;;12.55;4.65;;;4.50;99.90;;;;;;4988255;28;20041;-73
2023/12/08 08:04:51;;;;;;;9.25;4.88;;;4.50;99.90;;;;;;4973937;28;20022;-72
2023/12/08 08:07:16;;;;;;;19.30;7.80;;;4.50;99.90;;;;;;4983615;28;20038;-72
2023/12/08 08:09:42;;;;;;;16.65;9.40;;;4.60;99.90;;;;;;4986466;28;20116;-71
2023/12/08 08:12:09;;;;;;;24.75;13.48;;;4.50;99.90;;;;;;4986934;28;20041;-71
2023/12/08 08:14:35;;;;;;;35.60;18.15;;;4.50;99.90;;;;;;4997131;28;20496;-72
2023/12/08 08:17:01;;;;;;;35.65;18.45;;;4.50;99.90;;;;;;4997044;28;20033;-72
2023/12/08 08:19:27;;;;;;;43.65;21.20;;;4.40;99.90;;;;;;4995060;28;20029;-72
2023/12/08 08:21:53;;;;;;;45.30;24.27;;;4.40;99.90;;;;;;4995736;28;20482;-72
2023/12/08 08:24:18;;;;;;;47.22;28.38;;;4.30;99.90;;;;;;4996434;28;20077;-72
2023/12/08 08:26:44;;;;;;;52.40;28.98;;;4.30;99.90;;;;;;4994615;28;20038;-72
2023/12/08 08:29:09;;;;;;;47.63;29.08;;;4.20;99.90;;;;;;4992096;28;20054;-71
2023/12/08 08:31:35;;;;;;;45.97;27.95;;;4.20;99.90;;;;;;4990350;28;20108;-71
2023/12/08 08:34:03;;;;;;;45.03;26.58;;;4.20;99.90;;;;;;4994210;28;20030;-72
2023/12/08 08:36:29;;;;;;;39.75;22.50;;;4.20;99.90;;;;;;4994650;28;20037;-71
2023/12/08 08:38:54;;;;;;;43.08;22.20;;;4.10;99.90;;;;;;4977623;28;20429;-71
2023/12/08 08:41:21;;;;;;;37.47;19.52;;;4.10;99.90;;;;;;4991315;28;20027;-71
2023/12/08 08:43:47;;;;;;;42.88;22.00;;;4.10;99.90;;;;;;4992227;28;20106;-72
2023/12/08 08:46:13;;;;;;;37.65;17.80;;;4.10;99.90;;;;;;4991149;28;20117;-70
2023/12/08 08:48:38;;;;;;;29.63;17.90;;;4.10;99.90;;;;;;4991078;28;20525;-71
2023/12/08 08:51:04;;;;;;;47.13;19.58;;;4.10;99.90;;;;;;4988620;28;20572;-71
2023/12/08 08:53:30;;;;;;;37.10;17.30;;;4.10;99.90;;;;;;4997704;28;20022;-71
2023/12/08 08:55:56;;;;;;;32.30;13.85;;;4.10;99.90;;;;;;4995165;28;20034;-73
2023/12/08 08:58:21;;;;;;;31.42;15.57;;;4.10;99.90;;;;;;4977120;28;20504;-73
2023/12/08 09:00:47;;;;;;;35.00;16.30;;;4.10;99.90;;;;;;4976952;28;20022;-73
2023/12/08 09:03:13;;;;;;;30.60;16.55;;;4.10;99.90;;;;;;4993941;28;20026;-71
2023/12/08 09:05:41;;;;;;;28.08;15.20;;;4.10;99.90;;;;;;4994453;28;20508;-72
2023/12/08 09:08:08;;;;;;;28.15;14.57;;;4.10;99.90;;;;;;4992612;28;20060;-71
2023/12/08 09:10:34;;;;;;;30.77;14.38;;;4.10;99.90;;;;;;4994680;28;20045;-71
2023/12/08 09:13:00;;;;;;;30.25;14.05;;;4.10;99.90;;;;;;4990213;28;20057;-71
2023/12/08 09:15:25;;;;;;;29.40;12.90;;;4.20;99.90;;;;;;4993918;28;20054;-71
2023/12/08 09:17:51;;;;;;;23.58;13.80;;;4.20;99.90;;;;;;4991157;28;20026;-71
2023/12/08 09:20:17;;;;;;;22.75;11.77;;;4.20;99.90;;;;;;4992066;28;20019;-71
2023/12/08 09:22:44;;;;;;;18.05;10.25;;;4.20;99.90;;;;;;4992956;28;20027;-71
2023/12/08 09:25:10;;;;;;;20.73;10.07;;;4.20;99.90;;;;;;4989817;28;20018;-71
2023/12/08 09:27:36;;;;;;;23.15;12.52;;;4.20;99.90;;;;;;4994378;28;20037;-71
2023/12/08 09:30:02;;;;;;;28.25;11.95;;;4.20;99.90;;;;;;4992368;28;20401;-71
2023/12/08 09:32:28;;;;;;;21.27;11.40;;;4.30;99.90;;;;;;4969905;28;20030;-72
2023/12/08 09:34:53;;;;;;;28.10;13.45;;;4.30;99.90;;;;;;4991576;28;20022;-72
2023/12/08 09:37:19;;;;;;;24.80;14.40;;;4.30;99.90;;;;;;4992732;28;20022;-71
2023/12/08 09:39:44;;;;;;;26.55;13.98;;;4.40;99.90;;;;;;4993918;28;20085;-71
2023/12/08 09:42:20;;;;;;;29.75;14.07;;;4.40;99.90;;;;;;4992728;28;20109;-72
2023/12/08 09:44:48;;;;;;;33.83;14.80;;;4.40;99.90;;;;;;4993395;28;20465;-70
2023/12/08 09:47:17;;;;;;;25.73;14.18;;;4.50;99.90;;;;;;4993182;23;20366;-71
2023/12/08 09:49:49;;;;;;;24.92;13.95;;;4.50;99.90;;;;;;4981267;28;20484;-70
2023/12/08 09:52:15;;;;;;;22.25;14.13;;;4.50;99.90;;;;;;4987499;28;20046;-71
2023/12/08 09:54:42;;;;;;;26.25;14.05;;;4.60;99.90;;;;;;4989106;28;20099;-71
2023/12/08 09:57:13;;;;;;;26.85;13.55;;;4.60;99.90;;;;;;4988926;28;20094;-71
2023/12/08 09:59:41;;;;;;;21.52;11.38;;;4.60;99.90;;;;;;4988543;28;20110;-70
2023/12/08 10:02:07;;;;;;;19.58;10.43;;;4.70;99.90;;;;;;4989191;28;20435;-71
2023/12/08 10:04:34;;;;;;;20.70;9.18;;;4.80;99.90;;;;;;4987665;28;20026;-70
2023/12/08 10:07:04;;;;;;;11.52;6.18;;;4.90;99.90;;;;;;4988457;28;20022;-71
2023/12/08 10:09:30;;;;;;;9.95;4.20;;;5.00;99.90;;;;;;4987422;28;20026;-71
2023/12/08 10:11:56;;;;;;;9.88;3.92;;;5.10;99.90;;;;;;4989488;28;20030;-71
2023/12/08 10:14:25;;;;;;;5.85;2.90;;;5.20;99.90;;;;;;4989366;28;20088;-71
2023/12/08 10:16:51;;;;;;;3.40;1.50;;;5.20;99.90;;;;;;4985128;28;20449;-71
2023/12/08 10:19:20;;;;;;;3.78;1.48;;;5.30;99.90;;;;;;4989880;28;20098;-71
2023/12/08 10:21:58;;;;;;;3.22;1.73;;;5.30;99.90;;;;;;4987786;28;20424;-71
2023/12/08 10:24:25;;;;;;;5.03;1.65;;;5.40;99.90;;;;;;4982638;28;20073;-71
2023/12/08 10:26:53;;;;;;;3.90;1.83;;;5.50;99.90;;;;;;4987216;28;20404;-71
2023/12/08 10:29:19;;;;;;;3.00;1.60;;;5.50;99.90;;;;;;4988722;28;20018;-71
2023/12/08 10:31:46;;;;;;;1.80;1.15;;;5.60;99.90;;;;;;4989244;28;20038;-71
2023/12/08 10:34:13;;;;;;;3.30;0.90;;;5.70;99.90;;;;;;4989632;28;20025;-70
2023/12/08 10:36:39;;;;;;;4.53;1.30;;;5.70;99.90;;;;;;4988812;28;20022;-71
2023/12/08 10:39:06;;;;;;;9.07;3.33;;;5.80;99.90;;;;;;4988543;28;20026;-71
2023/12/08 10:41:33;;;;;;;9.00;3.08;;;5.80;99.90;;;;;;4988415;28;20043;-71
2023/12/08 10:44:02;;;;;;;21.25;11.25;;;5.80;99.90;;;;;;4985370;28;20027;-71
2023/12/08 10:46:31;;;;;;;23.75;12.38;;;5.80;99.90;;;;;;4987988;28;20466;-71
2023/12/08 10:48:59;;;;;;;26.70;13.32;;;5.70;99.90;;;;;;4988204;28;20034;-71
2023/12/08 10:51:26;;;;;;;28.48;14.30;;;5.60;99.90;;;;;;4986191;28;20037;-71
2023/12/08 10:53:52;;;;;;;22.58;12.85;;;5.50;99.90;;;;;;4987529;28;20023;-71
2023/12/08 10:56:21;;;;;;;25.15;12.80;;;5.40;99.90;;;;;;4983976;28;20084;-71
2023/12/08 10:58:56;;;;;;;27.00;13.00;;;5.30;99.90;;;;;;4988404;28;20074;-71
2023/12/08 11:01:23;;;;;;;22.27;12.93;;;5.30;99.90;;;;;;4985934;28;20026;-71
2023/12/08 11:03:55;;;;;;;22.98;12.57;;;5.30;99.90;;;;;;4986520;28;20441;-71
2023/12/08 11:06:24;;;;;;;20.38;12.20;;;5.30;99.90;;;;;;4988849;28;20030;-71
2023/12/08 11:08:55;;;;;;;21.08;11.73;;;5.30;99.90;;;;;;4992261;28;20088;-71
2023/12/08 11:11:24;;;;;;;22.70;13.10;;;5.30;99.90;;;;;;4991317;28;20030;-71
2023/12/08 11:13:56;;;;;;;25.15;14.50;;;5.30;99.90;;;;;;4993905;28;20101;-71
2023/12/08 11:16:47;;;;;;;25.10;15.75;;;5.30;99.90;;;;;;4990701;28;20694;-71
2023/12/08 11:19:14;;;;;;;24.92;15.40;;;5.40;99.90;;;;;;4990848;28;20026;-71
2023/12/08 11:21:39;;;;;;;21.23;14.32;;;5.40;99.90;;;;;;4992745;28;20015;-71
2023/12/08 11:24:07;;;;;;;26.55;15.02;;;5.40;99.90;;;;;;4992149;28;20035;-71
2023/12/08 11:27:04;;;;;;;22.98;13.95;;;5.40;99.90;;;;;;4990599;28;20092;-71
2023/12/08 11:30:05;;;;;;;22.42;14.75;;;5.50;99.90;;;;;;4984444;28;20482;-71
2023/12/08 11:32:55;;;;;;;20.17;13.73;;;5.50;99.90;;;;;;4988223;28;20087;-71
2023/12/08 11:35:21;;;;;;;23.55;13.68;;;5.50;99.90;;;;;;4988031;28;20026;-71
2023/12/08 11:37:47;;;;;;;22.85;12.82;;;5.60;99.90;;;;;;4991548;28;20022;-71
2023/12/08 11:40:13;;;;;;;24.65;12.73;;;5.60;99.90;;;;;;4992924;28;20027;-71
2023/12/08 11:42:42;;;;;;;17.98;11.00;;;5.60;99.90;;;;;;4991991;28;20030;-71
2023/12/08 11:45:09;;;;;;;17.25;9.27;;;5.70;99.90;;;;;;4990880;28;20109;-71
2023/12/08 11:47:35;;;;;;;10.35;5.95;;;5.70;99.90;;;;;;4992859;28;20062;-71
2023/12/08 11:50:10;;;;;;;14.10;6.80;;;5.70;99.90;;;;;;4988439;28;20081;-71
2023/12/08 11:52:37;;;;;;;13.25;5.65;;;5.80;99.90;;;;;;4992613;28;20015;-71
2023/12/08 11:55:23;;;;;;;13.48;4.80;;;5.90;99.90;;;;;;4991096;28;20481;-71
2023/12/08 11:57:54;;;;;;;6.43;3.33;;;5.90;99.90;;;;;;4990528;28;20026;-71
2023/12/08 12:00:22;;;;;;;5.53;3.10;;;6.00;99.90;;;;;;4991632;28;20417;-70
2023/12/08 12:02:48;;;;;;;6.07;2.35;;;6.00;99.90;;;;;;4989644;28;20112;-71
2023/12/08 12:05:15;;;;;;;3.65;1.88;;;6.10;99.90;;;;;;4987341;28;20027;-71
2023/12/08 12:07:49;;;;;;;3.38;2.00;;;6.10;99.90;;;;;;4991871;28;20045;-71
2023/12/08 12:10:23;;;;;;;3.75;2.05;;;6.10;99.90;;;;;;4990565;28;20027;-71
2023/12/08 12:12:55;;;;;;;4.43;1.70;;;6.20;99.90;;;;;;4990495;28;20088;-71
2023/12/08 12:15:23;;;;;;;2.72;1.48;;;6.30;99.90;;;;;;4989086;28;20402;-71
2023/12/08 12:17:50;;;;;;;4.60;1.85;;;6.30;99.90;;;;;;4984896;28;20440;-70
2023/12/08 12:20:15;;;;;;;4.43;2.38;;;6.30;99.90;;;;;;4989812;28;20014;-71
2023/12/08 12:22:41;;;;;;;4.30;2.17;;;6.30;99.90;;;;;;4991810;28;20022;-71
2023/12/08 12:25:10;;;;;;;3.47;2.10;;;6.40;99.90;;;;;;4990419;28;20088;-71
2023/12/08 12:27:47;;;;;;;3.03;1.50;;;6.40;99.90;;;;;;4989028;28;20492;-71
2023/12/08 12:30:15;;;;;;;3.03;1.65;;;6.40;99.90;;;;;;4990773;28;20026;-70
2023/12/08 12:32:41;;;;;;;5.57;2.25;;;6.40;99.90;;;;;;4990610;28;20034;-71
2023/12/08 12:35:08;;;;;;;3.95;2.10;;;6.40;99.90;;;;;;4989046;28;20022;-71
2023/12/08 12:37:34;;;;;;;6.60;3.00;;;6.50;99.90;;;;;;4984037;28;20027;-71
2023/12/08 12:40:00;;;;;;;4.15;2.47;;;6.50;99.90;;;;;;4989725;28;20090;-71
2023/12/08 12:42:26;;;;;;;3.95;2.25;;;6.50;99.90;;;;;;4987755;28;20019;-71
2023/12/08 12:44:52;;;;;;;4.97;2.50;;;6.50;99.90;;;;;;4990403;28;20553;-71